createdAt,value
2022-11-29T00:00:12.674Z,2.30
2022-11-29T00:05:36.345Z,2.26
2022-11-29T00:10:39.606Z,2.22
2022-11-29T00:15:42.814Z,2.19
2022-11-29T00:20:46.125Z,2.16
2022-11-29T00:25:49.334Z,2.13
2022-11-29T00:30:52.919Z,2.08
2022-11-29T00:35:56.363Z,2.03
2022-11-29T00:40:59.774Z,1.97
2022-11-29T00:46:03.422Z,1.93
2022-11-29T00:51:07.930Z,1.91
2022-11-29T00:56:11.138Z,1.88
2022-11-29T01:01:14.586Z,1.84
2022-11-29T01:06:19.156Z,1.80
2022-11-29T01:11:24.711Z,1.76
2022-11-29T01:16:30.445Z,1.72
2022-11-29T01:21:33.638Z,1.71
2022-11-29T01:26:36.943Z,1.70
2022-11-29T01:31:40.659Z,1.67
2022-11-29T01:36:43.762Z,1.64
2022-11-29T01:41:47.071Z,1.59
2022-11-29T01:46:50.177Z,1.54
2022-11-29T01:52:25.030Z,1.49
2022-11-29T01:57:29.314Z,1.46
2022-11-29T02:02:47.870Z,1.45
2022-11-29T02:07:53.931Z,1.42
2022-11-29T02:13:25.475Z,1.40
2022-11-29T02:18:54.282Z,1.37
2022-11-29T02:24:13.672Z,1.35
2022-11-29T02:29:54.460Z,1.35
2022-11-29T02:35:44.156Z,1.34
2022-11-29T02:41:15.275Z,1.34
2022-11-29T02:46:33.949Z,1.32
2022-11-29T02:51:59.212Z,1.32
2022-11-29T02:57:16.141Z,1.31
2022-11-29T03:02:53.713Z,1.31
2022-11-29T03:08:18.468Z,1.31
2022-11-29T03:13:48.607Z,1.31
2022-11-29T03:19:09.428Z,1.30
2022-11-29T03:24:28.916Z,1.29
2022-11-29T03:29:51.580Z,1.29
2022-11-29T03:35:15.591Z,1.29
2022-11-29T03:40:31.891Z,1.29
2022-11-29T03:45:43.912Z,1.28
2022-11-29T03:50:59.046Z,1.28
2022-11-29T03:56:05.339Z,1.28
2022-11-29T04:01:35.890Z,1.28
2022-11-29T04:07:16.900Z,1.27
2022-11-29T04:12:57.709Z,1.27
2022-11-29T04:18:38.399Z,1.27
2022-11-29T04:24:03.307Z,1.27
2022-11-29T04:29:54.646Z,1.27
2022-11-29T04:35:09.830Z,1.27
2022-11-29T04:40:37.156Z,1.27
2022-11-29T04:45:55.465Z,1.26
2022-11-29T04:51:17.927Z,1.26
2022-11-29T04:56:43.559Z,1.27
2022-11-29T05:02:02.704Z,1.26
2022-11-29T05:07:22.389Z,1.27
2022-11-29T05:12:49.360Z,1.27
2022-11-29T05:18:31.401Z,1.27
2022-11-29T05:23:46.810Z,1.26
2022-11-29T05:29:09.683Z,1.26
2022-11-29T05:34:45.389Z,1.26
2022-11-29T05:40:05.553Z,1.27
2022-11-29T05:45:30.985Z,1.28
2022-11-29T05:50:43.310Z,1.29
2022-11-29T05:56:10.883Z,1.31
2022-11-29T06:01:23.920Z,1.31
2022-11-29T06:06:52.115Z,1.33
2022-11-29T06:12:05.564Z,1.34
2022-11-29T06:17:34.421Z,1.35
2022-11-29T06:23:16.189Z,1.38
2022-11-29T06:28:32.403Z,1.40
2022-11-29T06:33:45.333Z,1.42
2022-11-29T06:38:49.165Z,1.45
2022-11-29T06:43:52.876Z,1.48
2022-11-29T06:49:27.928Z,1.50
2022-11-29T06:54:58.373Z,1.51
2022-11-29T07:00:22.422Z,1.52
2022-11-29T07:05:30.493Z,1.54
2022-11-29T07:10:36.873Z,1.55
2022-11-29T07:15:53.132Z,1.56
2022-11-29T07:21:14.521Z,1.58
2022-11-29T07:26:59.581Z,1.60
2022-11-29T07:32:26.372Z,1.62
2022-11-29T07:37:37.155Z,1.64
2022-11-29T07:43:08.625Z,1.66
2022-11-29T07:48:13.250Z,1.66
2022-11-29T07:53:22.120Z,1.66
2022-11-29T07:58:25.591Z,1.67
2022-11-29T08:03:29.546Z,1.67
2022-11-29T08:08:32.755Z,1.67
2022-11-29T08:13:36.065Z,1.68
2022-11-29T08:18:39.987Z,1.67
2022-11-29T08:23:43.196Z,1.67
2022-11-29T08:28:52.018Z,1.70
2022-11-29T08:33:55.249Z,1.72
2022-11-29T08:39:05.993Z,1.73
2022-11-29T08:44:12.006Z,1.75
2022-11-29T08:49:15.311Z,1.76
2022-11-29T08:54:18.420Z,1.77
2022-11-29T08:59:21.752Z,1.78
2022-11-29T09:04:24.832Z,1.77
2022-11-29T09:09:28.144Z,1.76
2022-11-29T09:14:31.452Z,1.76
2022-11-29T09:19:35.171Z,1.76
2022-11-29T09:24:38.173Z,1.78
2022-11-29T09:29:41.484Z,1.79
2022-11-29T09:34:44.955Z,1.81
2022-11-29T09:39:48.205Z,1.80
2022-11-29T09:45:00.835Z,1.81
2022-11-29T09:50:22.578Z,1.81
2022-11-29T09:55:36.229Z,1.80
2022-11-29T10:00:48.909Z,1.79
2022-11-29T10:05:59.110Z,1.74
2022-11-29T10:11:32.755Z,1.70
2022-11-29T10:17:04.325Z,1.66
2022-11-29T10:22:10.604Z,1.68
2022-11-29T10:27:21.498Z,1.72
2022-11-29T10:32:26.402Z,1.73
2022-11-29T10:37:33.026Z,1.74
2022-11-29T10:42:52.620Z,1.77
2022-11-29T10:48:02.378Z,1.77
2022-11-29T10:53:31.084Z,1.75
2022-11-29T10:58:35.009Z,1.79
2022-11-29T11:03:41.189Z,1.81
2022-11-29T11:08:51.700Z,1.81
2022-11-29T11:14:06.957Z,1.79
2022-11-29T11:19:26.138Z,1.73
2022-11-29T11:24:36.411Z,1.74
2022-11-29T11:29:44.841Z,1.74
2022-11-29T11:35:21.944Z,1.76
2022-11-29T11:40:29.466Z,1.78
2022-11-29T11:45:36.919Z,1.80
2022-11-29T11:50:49.898Z,1.81
2022-11-29T11:56:02.934Z,1.81
2022-11-29T12:01:12.307Z,1.80
2022-11-29T12:06:34.646Z,1.79
2022-11-29T12:11:46.554Z,1.72
2022-11-29T12:16:53.154Z,1.68
2022-11-29T12:22:03.420Z,1.67
2022-11-29T12:27:14.731Z,1.66
2022-11-29T12:32:43.211Z,1.67
2022-11-29T12:38:20.216Z,1.68
2022-11-29T12:43:42.161Z,1.68
2022-11-29T12:48:56.630Z,1.65
2022-11-29T12:54:35.891Z,1.63
2022-11-29T13:00:04.589Z,1.61
2022-11-29T13:05:26.026Z,1.59
2022-11-29T13:11:07.536Z,1.57
2022-11-29T13:16:48.121Z,1.57
2022-11-29T13:22:10.677Z,1.55
2022-11-29T13:27:30.063Z,1.55
2022-11-29T13:32:51.601Z,1.57
2022-11-29T13:38:15.289Z,1.55
2022-11-29T13:43:29.209Z,1.53
2022-11-29T13:48:46.278Z,1.49
2022-11-29T13:53:49.902Z,1.47
2022-11-29T13:58:54.848Z,1.45
2022-11-29T14:04:07.783Z,1.43
2022-11-29T14:09:19.301Z,1.40
2022-11-29T14:14:30.553Z,1.36
2022-11-29T14:19:36.616Z,1.33
2022-11-29T14:24:41.296Z,1.30
2022-11-29T14:29:47.804Z,1.28
2022-11-29T14:35:12.907Z,1.25
2022-11-29T14:40:34.542Z,1.22
2022-11-29T14:45:38.177Z,1.18
2022-11-29T14:50:42.493Z,1.14
2022-11-29T14:55:46.110Z,1.11
2022-11-29T15:00:49.433Z,1.08
2022-11-29T15:05:58.729Z,1.07
2022-11-29T15:11:18.802Z,1.05
2022-11-29T15:16:36.480Z,1.02
2022-11-29T15:21:45.672Z,0.99
2022-11-29T15:27:04.421Z,0.99
2022-11-29T15:32:13.382Z,1.01
2022-11-29T15:37:25.304Z,1.00
2022-11-29T15:42:32.651Z,0.99
2022-11-29T15:47:36.420Z,0.98
2022-11-29T15:52:39.729Z,0.98
2022-11-29T15:57:46.212Z,0.98
2022-11-29T16:03:03.971Z,0.99
2022-11-29T16:08:20.083Z,0.97
2022-11-29T16:13:26.294Z,0.97
2022-11-29T16:18:29.867Z,0.96
2022-11-29T16:23:43.217Z,0.96
2022-11-29T16:28:48.085Z,0.96
2022-11-29T16:33:53.111Z,0.96
2022-11-29T16:39:08.390Z,0.97
2022-11-29T16:44:39.808Z,0.97
2022-11-29T16:49:43.901Z,0.98
2022-11-29T16:54:47.245Z,0.97
2022-11-29T16:59:51.133Z,0.98
2022-11-29T17:04:54.756Z,0.99
2022-11-29T17:09:59.289Z,1.00
2022-11-29T17:15:03.934Z,1.02
2022-11-29T17:20:09.222Z,1.03
2022-11-29T17:25:15.449Z,1.04
2022-11-29T17:30:20.212Z,1.06
2022-11-29T17:35:24.237Z,1.08
2022-11-29T17:40:27.753Z,1.10
2022-11-29T17:45:31.115Z,1.13
2022-11-29T17:50:36.216Z,1.16
2022-11-29T17:55:39.732Z,1.18
2022-11-29T18:00:42.840Z,1.19
2022-11-29T18:05:46.147Z,1.20
2022-11-29T18:10:49.253Z,1.22
2022-11-29T18:15:52.572Z,1.24
2022-11-29T18:21:00.178Z,1.26
2022-11-29T18:26:11.588Z,1.28
2022-11-29T18:31:18.256Z,1.28
2022-11-29T18:36:33.249Z,1.28
2022-11-29T18:41:38.079Z,1.30
2022-11-29T18:46:44.249Z,1.32
2022-11-29T18:51:49.062Z,1.32
2022-11-29T18:56:52.549Z,1.33
2022-11-29T19:01:57.280Z,1.35
2022-11-29T19:07:01.408Z,1.36
2022-11-29T19:12:05.032Z,1.37
2022-11-29T19:17:10.391Z,1.39
2022-11-29T19:22:14.510Z,1.39
2022-11-29T19:27:18.138Z,1.41
2022-11-29T19:32:21.743Z,1.42
2022-11-29T19:37:25.057Z,1.44
2022-11-29T19:42:28.265Z,1.44
2022-11-29T19:47:31.684Z,1.45
2022-11-29T19:52:35.295Z,1.45
2022-11-29T19:57:39.438Z,1.47
2022-11-29T20:02:43.466Z,1.49
2022-11-29T20:07:47.079Z,1.49
2022-11-29T20:12:50.687Z,1.51
2022-11-29T20:17:54.199Z,1.50
2022-11-29T20:22:57.614Z,1.50
2022-11-29T20:28:01.127Z,1.47
2022-11-29T20:33:04.952Z,1.46
2022-11-29T20:38:09.050Z,1.44
2022-11-29T20:43:31.195Z,1.44
2022-11-29T20:48:34.995Z,1.43
2022-11-29T20:53:44.534Z,1.43
2022-11-29T20:58:47.716Z,1.42
2022-11-29T21:03:52.121Z,1.39
2022-11-29T21:08:56.641Z,1.36
2022-11-29T21:14:04.029Z,1.32
2022-11-29T21:19:15.280Z,1.30
2022-11-29T21:24:31.102Z,1.28
2022-11-29T21:29:35.239Z,1.28
2022-11-29T21:34:38.743Z,1.28
2022-11-29T21:39:42.174Z,1.27
2022-11-29T21:44:47.057Z,1.25
2022-11-29T21:49:52.875Z,1.24
2022-11-29T21:54:56.078Z,1.23
2022-11-29T21:59:59.290Z,1.21
2022-11-29T22:05:02.598Z,1.18
2022-11-29T22:10:12.938Z,1.16
2022-11-29T22:15:21.506Z,1.15
2022-11-29T22:20:27.890Z,1.12
2022-11-29T22:25:31.103Z,1.10
2022-11-29T22:30:36.253Z,1.09
2022-11-29T22:35:44.281Z,1.09
2022-11-29T22:40:47.380Z,1.08
2022-11-29T22:45:50.689Z,1.07
2022-11-29T22:51:01.372Z,1.07
2022-11-29T22:56:06.611Z,1.07
2022-11-29T23:01:14.373Z,1.06
2022-11-29T23:06:24.738Z,1.04
2022-11-29T23:11:30.105Z,1.03
2022-11-29T23:16:33.942Z,1.02
2022-11-29T23:21:40.445Z,1.02
2022-11-29T23:26:46.716Z,1.02
2022-11-29T23:31:50.038Z,1.01
2022-11-29T23:36:53.521Z,1.00
2022-11-29T23:41:56.797Z,1.00
2022-11-29T23:46:59.904Z,0.99
2022-11-29T23:52:03.108Z,0.98
2022-11-29T23:57:06.320Z,0.97
